sensor_id;sensor_type;location;lat;lon;timestamp;temperature;humidity
16578;DHT22;8401;52.528;13.340;2023-05-23T00:00:40;20.30;86.20
16578;DHT22;8401;52.528;13.340;2023-05-23T00:03:06;20.30;86.40
16578;DHT22;8401;52.528;13.340;2023-05-23T00:05:33;20.30;86.30
16578;DHT22;8401;52.528;13.340;2023-05-23T00:07:59;20.30;86.40
16578;DHT22;8401;52.528;13.340;2023-05-23T00:10:25;20.20;86.50
16578;DHT22;8401;52.528;13.340;2023-05-23T00:12:51;20.20;86.90
16578;DHT22;8401;52.528;13.340;2023-05-23T00:15:17;20.30;86.70
16578;DHT22;8401;52.528;13.340;2023-05-23T00:17:44;20.20;87.30
16578;DHT22;8401;52.528;13.340;2023-05-23T00:20:10;20.20;86.80
16578;DHT22;8401;52.528;13.340;2023-05-23T00:22:38;20.20;87.00
16578;DHT22;8401;52.528;13.340;2023-05-23T00:25:08;20.10;87.20
16578;DHT22;8401;52.528;13.340;2023-05-23T00:27:34;20.10;87.40
16578;DHT22;8401;52.528;13.340;2023-05-23T00:30:00;20.00;87.50
16578;DHT22;8401;52.528;13.340;2023-05-23T00:32:26;20.00;87.60
16578;DHT22;8401;52.528;13.340;2023-05-23T00:34:51;19.90;87.80
16578;DHT22;8401;52.528;13.340;2023-05-23T00:37:19;19.90;88.00
16578;DHT22;8401;52.528;13.340;2023-05-23T00:39:44;19.90;88.20
16578;DHT22;8401;52.528;13.340;2023-05-23T00:42:10;19.80;88.10
16578;DHT22;8401;52.528;13.340;2023-05-23T00:44:36;19.80;88.70
16578;DHT22;8401;52.528;13.340;2023-05-23T00:47:01;19.80;88.80
16578;DHT22;8401;52.528;13.340;2023-05-23T00:49:28;19.80;88.80
16578;DHT22;8401;52.528;13.340;2023-05-23T00:51:54;19.80;88.80
16578;DHT22;8401;52.528;13.340;2023-05-23T00:54:24;19.70;89.00
16578;DHT22;8401;52.528;13.340;2023-05-23T00:56:52;19.70;89.20
16578;DHT22;8401;52.528;13.340;2023-05-23T00:59:18;19.70;89.20
16578;DHT22;8401;52.528;13.340;2023-05-23T01:01:47;19.60;89.40
16578;DHT22;8401;52.528;13.340;2023-05-23T01:04:13;19.60;89.60
16578;DHT22;8401;52.528;13.340;2023-05-23T01:06:38;19.60;89.70
16578;DHT22;8401;52.528;13.340;2023-05-23T01:09:05;19.60;89.80
16578;DHT22;8401;52.528;13.340;2023-05-23T01:14:40;19.50;90.00
16578;DHT22;8401;52.528;13.340;2023-05-23T01:17:18;19.40;90.10
16578;DHT22;8401;52.528;13.340;2023-05-23T01:20:01;19.40;90.10
16578;DHT22;8401;52.528;13.340;2023-05-23T01:22:32;19.40;90.20
16578;DHT22;8401;52.528;13.340;2023-05-23T01:27:56;19.40;90.20
16578;DHT22;8401;52.528;13.340;2023-05-23T01:30:24;19.40;90.30
16578;DHT22;8401;52.528;13.340;2023-05-23T01:32:53;19.40;90.20
16578;DHT22;8401;52.528;13.340;2023-05-23T01:35:23;19.40;90.20
16578;DHT22;8401;52.528;13.340;2023-05-23T01:37:54;19.40;90.50
16578;DHT22;8401;52.528;13.340;2023-05-23T01:40:22;19.40;90.40
16578;DHT22;8401;52.528;13.340;2023-05-23T01:42:49;19.50;90.30
16578;DHT22;8401;52.528;13.340;2023-05-23T01:45:16;19.50;90.30
16578;DHT22;8401;52.528;13.340;2023-05-23T01:47:42;19.40;90.60
16578;DHT22;8401;52.528;13.340;2023-05-23T01:50:09;19.40;90.60
16578;DHT22;8401;52.528;13.340;2023-05-23T01:52:36;19.40;90.70
16578;DHT22;8401;52.528;13.340;2023-05-23T01:55:05;19.40;91.00
16578;DHT22;8401;52.528;13.340;2023-05-23T01:57:35;19.40;90.80
16578;DHT22;8401;52.528;13.340;2023-05-23T02:00:05;19.20;91.20
16578;DHT22;8401;52.528;13.340;2023-05-23T02:02:32;19.20;91.40
16578;DHT22;8401;52.528;13.340;2023-05-23T02:04:58;19.10;91.30
16578;DHT22;8401;52.528;13.340;2023-05-23T02:07:24;19.10;91.50
16578;DHT22;8401;52.528;13.340;2023-05-23T02:09:49;19.20;91.90
16578;DHT22;8401;52.528;13.340;2023-05-23T02:12:15;19.20;91.70
16578;DHT22;8401;52.528;13.340;2023-05-23T02:14:41;19.10;91.90
16578;DHT22;8401;52.528;13.340;2023-05-23T02:17:07;19.30;91.20
16578;DHT22;8401;52.528;13.340;2023-05-23T02:19:35;19.30;91.40
16578;DHT22;8401;52.528;13.340;2023-05-23T02:22:00;19.30;91.40
16578;DHT22;8401;52.528;13.340;2023-05-23T02:24:26;19.30;91.60
16578;DHT22;8401;52.528;13.340;2023-05-23T02:26:52;19.30;91.30
16578;DHT22;8401;52.528;13.340;2023-05-23T02:29:18;19.30;91.20
16578;DHT22;8401;52.528;13.340;2023-05-23T02:31:44;19.40;91.20
16578;DHT22;8401;52.528;13.340;2023-05-23T02:34:09;19.40;91.10
16578;DHT22;8401;52.528;13.340;2023-05-23T02:36:35;19.40;91.30
16578;DHT22;8401;52.528;13.340;2023-05-23T02:39:04;19.30;91.90
16578;DHT22;8401;52.528;13.340;2023-05-23T02:41:30;19.30;91.30
16578;DHT22;8401;52.528;13.340;2023-05-23T02:43:56;19.20;91.70
16578;DHT22;8401;52.528;13.340;2023-05-23T02:46:22;19.00;92.10
16578;DHT22;8401;52.528;13.340;2023-05-23T02:48:48;19.00;92.20
16578;DHT22;8401;52.528;13.340;2023-05-23T02:51:13;18.90;92.60
16578;DHT22;8401;52.528;13.340;2023-05-23T02:53:39;18.90;92.50
16578;DHT22;8401;52.528;13.340;2023-05-23T02:56:05;18.80;92.90
16578;DHT22;8401;52.528;13.340;2023-05-23T02:58:33;18.80;92.70
16578;DHT22;8401;52.528;13.340;2023-05-23T03:01:01;18.80;92.70
16578;DHT22;8401;52.528;13.340;2023-05-23T03:03:26;18.80;93.00
16578;DHT22;8401;52.528;13.340;2023-05-23T03:05:53;18.80;93.10
16578;DHT22;8401;52.528;13.340;2023-05-23T03:08:19;18.80;92.90
16578;DHT22;8401;52.528;13.340;2023-05-23T03:10:44;18.80;93.10
16578;DHT22;8401;52.528;13.340;2023-05-23T03:13:10;18.80;92.90
16578;DHT22;8401;52.528;13.340;2023-05-23T03:15:36;18.80;93.10
16578;DHT22;8401;52.528;13.340;2023-05-23T03:18:01;18.80;93.00
16578;DHT22;8401;52.528;13.340;2023-05-23T03:20:27;19.10;92.60
16578;DHT22;8401;52.528;13.340;2023-05-23T03:22:53;19.00;92.70
16578;DHT22;8401;52.528;13.340;2023-05-23T03:25:18;19.10;92.50
16578;DHT22;8401;52.528;13.340;2023-05-23T03:27:44;19.20;92.60
16578;DHT22;8401;52.528;13.340;2023-05-23T03:30:10;19.10;92.90
16578;DHT22;8401;52.528;13.340;2023-05-23T03:32:36;18.90;93.20
16578;DHT22;8401;52.528;13.340;2023-05-23T03:35:01;19.10;92.90
16578;DHT22;8401;52.528;13.340;2023-05-23T03:37:27;19.10;92.90
16578;DHT22;8401;52.528;13.340;2023-05-23T03:39:53;18.90;93.50
16578;DHT22;8401;52.528;13.340;2023-05-23T03:42:18;19.00;93.20
16578;DHT22;8401;52.528;13.340;2023-05-23T03:44:44;18.80;93.60
16578;DHT22;8401;52.528;13.340;2023-05-23T03:47:09;18.80;93.60
16578;DHT22;8401;52.528;13.340;2023-05-23T03:49:35;18.90;93.50
16578;DHT22;8401;52.528;13.340;2023-05-23T03:52:01;18.90;93.40
16578;DHT22;8401;52.528;13.340;2023-05-23T03:54:26;18.80;93.60
16578;DHT22;8401;52.528;13.340;2023-05-23T03:56:52;18.70;93.70
16578;DHT22;8401;52.528;13.340;2023-05-23T03:59:18;18.60;94.00
16578;DHT22;8401;52.528;13.340;2023-05-23T04:01:43;18.60;94.10
16578;DHT22;8401;52.528;13.340;2023-05-23T04:04:09;18.50;94.10
16578;DHT22;8401;52.528;13.340;2023-05-23T04:06:34;18.50;94.30
16578;DHT22;8401;52.528;13.340;2023-05-23T04:09:01;18.40;94.60
16578;DHT22;8401;52.528;13.340;2023-05-23T04:11:27;18.40;95.00
16578;DHT22;8401;52.528;13.340;2023-05-23T04:13:53;18.50;94.60
16578;DHT22;8401;52.528;13.340;2023-05-23T04:16:19;18.50;94.70
16578;DHT22;8401;52.528;13.340;2023-05-23T04:18:47;18.40;95.00
16578;DHT22;8401;52.528;13.340;2023-05-23T04:21:12;18.40;95.00
16578;DHT22;8401;52.528;13.340;2023-05-23T04:23:38;18.30;95.30
16578;DHT22;8401;52.528;13.340;2023-05-23T04:26:04;18.40;95.40
16578;DHT22;8401;52.528;13.340;2023-05-23T04:28:30;18.50;95.30
16578;DHT22;8401;52.528;13.340;2023-05-23T04:30:56;18.50;95.20
16578;DHT22;8401;52.528;13.340;2023-05-23T04:33:23;18.80;94.70
16578;DHT22;8401;52.528;13.340;2023-05-23T04:35:48;18.60;95.00
16578;DHT22;8401;52.528;13.340;2023-05-23T04:38:14;18.60;95.00
16578;DHT22;8401;52.528;13.340;2023-05-23T04:40:40;18.50;95.20
16578;DHT22;8401;52.528;13.340;2023-05-23T04:43:06;18.50;95.30
16578;DHT22;8401;52.528;13.340;2023-05-23T04:45:33;18.40;95.50
16578;DHT22;8401;52.528;13.340;2023-05-23T04:47:59;18.40;95.50
16578;DHT22;8401;52.528;13.340;2023-05-23T04:50:25;18.60;95.00
16578;DHT22;8401;52.528;13.340;2023-05-23T04:52:52;18.90;94.70
16578;DHT22;8401;52.528;13.340;2023-05-23T04:55:18;19.00;94.60
16578;DHT22;8401;52.528;13.340;2023-05-23T04:57:44;19.00;95.10
16578;DHT22;8401;52.528;13.340;2023-05-23T05:00:11;18.80;95.00
16578;DHT22;8401;52.528;13.340;2023-05-23T05:02:38;18.60;95.70
16578;DHT22;8401;52.528;13.340;2023-05-23T05:05:04;18.50;96.00
16578;DHT22;8401;52.528;13.340;2023-05-23T05:07:30;18.70;95.30
16578;DHT22;8401;52.528;13.340;2023-05-23T05:09:56;18.80;95.10
16578;DHT22;8401;52.528;13.340;2023-05-23T05:12:21;18.70;95.50
16578;DHT22;8401;52.528;13.340;2023-05-23T05:14:47;18.50;95.90
16578;DHT22;8401;52.528;13.340;2023-05-23T05:17:12;18.40;96.10
16578;DHT22;8401;52.528;13.340;2023-05-23T05:19:38;18.30;96.30
16578;DHT22;8401;52.528;13.340;2023-05-23T05:22:04;18.30;96.60
16578;DHT22;8401;52.528;13.340;2023-05-23T05:24:29;18.20;96.50
16578;DHT22;8401;52.528;13.340;2023-05-23T05:26:57;18.20;96.50
16578;DHT22;8401;52.528;13.340;2023-05-23T05:29:22;18.10;96.10
16578;DHT22;8401;52.528;13.340;2023-05-23T05:31:48;18.10;96.40
16578;DHT22;8401;52.528;13.340;2023-05-23T05:34:14;18.10;96.50
16578;DHT22;8401;52.528;13.340;2023-05-23T05:36:40;18.10;96.60
16578;DHT22;8401;52.528;13.340;2023-05-23T05:39:13;18.10;96.90
16578;DHT22;8401;52.528;13.340;2023-05-23T05:41:39;18.00;97.60
16578;DHT22;8401;52.528;13.340;2023-05-23T05:44:06;17.90;98.10
16578;DHT22;8401;52.528;13.340;2023-05-23T05:46:31;17.90;98.50
16578;DHT22;8401;52.528;13.340;2023-05-23T05:48:57;17.90;99.20
16578;DHT22;8401;52.528;13.340;2023-05-23T05:51:23;17.90;99.90
16578;DHT22;8401;52.528;13.340;2023-05-23T05:53:48;17.80;99.90
16578;DHT22;8401;52.528;13.340;2023-05-23T05:56:14;17.80;99.90
16578;DHT22;8401;52.528;13.340;2023-05-23T05:58:40;17.80;99.90
16578;DHT22;8401;52.528;13.340;2023-05-23T06:01:06;17.70;99.90
16578;DHT22;8401;52.528;13.340;2023-05-23T06:03:32;17.70;99.90
16578;DHT22;8401;52.528;13.340;2023-05-23T06:05:58;17.70;99.90
16578;DHT22;8401;52.528;13.340;2023-05-23T06:08:24;17.70;99.90
16578;DHT22;8401;52.528;13.340;2023-05-23T06:10:50;17.70;99.90
16578;DHT22;8401;52.528;13.340;2023-05-23T06:13:16;17.70;99.90
16578;DHT22;8401;52.528;13.340;2023-05-23T06:15:42;17.70;99.90
16578;DHT22;8401;52.528;13.340;2023-05-23T06:18:08;17.70;99.90
16578;DHT22;8401;52.528;13.340;2023-05-23T06:20:34;17.70;99.90
16578;DHT22;8401;52.528;13.340;2023-05-23T06:22:59;17.80;99.90
16578;DHT22;8401;52.528;13.340;2023-05-23T06:25:26;17.80;99.90
16578;DHT22;8401;52.528;13.340;2023-05-23T06:27:52;17.80;99.90
16578;DHT22;8401;52.528;13.340;2023-05-23T06:30:17;17.90;99.90
16578;DHT22;8401;52.528;13.340;2023-05-23T06:32:43;17.90;99.90
16578;DHT22;8401;52.528;13.340;2023-05-23T06:35:09;18.00;99.90
16578;DHT22;8401;52.528;13.340;2023-05-23T06:37:34;18.00;99.90
16578;DHT22;8401;52.528;13.340;2023-05-23T06:40:00;18.00;99.90
16578;DHT22;8401;52.528;13.340;2023-05-23T06:42:26;18.10;99.90
16578;DHT22;8401;52.528;13.340;2023-05-23T06:44:51;18.10;99.90
16578;DHT22;8401;52.528;13.340;2023-05-23T06:47:17;18.20;99.90
16578;DHT22;8401;52.528;13.340;2023-05-23T06:49:43;18.30;99.90
16578;DHT22;8401;52.528;13.340;2023-05-23T06:52:09;18.40;99.90
16578;DHT22;8401;52.528;13.340;2023-05-23T06:54:35;18.50;99.90
16578;DHT22;8401;52.528;13.340;2023-05-23T06:57:01;18.60;99.90
16578;DHT22;8401;52.528;13.340;2023-05-23T06:59:27;18.40;99.90
16578;DHT22;8401;52.528;13.340;2023-05-23T07:01:52;18.40;99.90
16578;DHT22;8401;52.528;13.340;2023-05-23T07:04:18;18.70;99.90
16578;DHT22;8401;52.528;13.340;2023-05-23T07:06:44;18.80;99.90
16578;DHT22;8401;52.528;13.340;2023-05-23T07:09:09;19.10;99.90
16578;DHT22;8401;52.528;13.340;2023-05-23T07:11:36;19.00;99.90
16578;DHT22;8401;52.528;13.340;2023-05-23T07:14:04;18.90;99.90
16578;DHT22;8401;52.528;13.340;2023-05-23T07:16:30;18.90;99.90
16578;DHT22;8401;52.528;13.340;2023-05-23T07:18:56;18.80;99.90
16578;DHT22;8401;52.528;13.340;2023-05-23T07:21:21;18.80;99.90
16578;DHT22;8401;52.528;13.340;2023-05-23T07:23:47;19.10;99.90
16578;DHT22;8401;52.528;13.340;2023-05-23T07:26:12;19.20;99.90
16578;DHT22;8401;52.528;13.340;2023-05-23T07:28:38;19.50;99.90
16578;DHT22;8401;52.528;13.340;2023-05-23T07:31:04;19.50;99.90
16578;DHT22;8401;52.528;13.340;2023-05-23T07:33:30;19.30;99.90
16578;DHT22;8401;52.528;13.340;2023-05-23T07:35:55;19.40;99.90
16578;DHT22;8401;52.528;13.340;2023-05-23T07:38:21;19.40;99.90
16578;DHT22;8401;52.528;13.340;2023-05-23T07:40:46;19.10;99.80
16578;DHT22;8401;52.528;13.340;2023-05-23T07:43:12;19.20;99.90
16578;DHT22;8401;52.528;13.340;2023-05-23T07:45:38;18.90;99.90
16578;DHT22;8401;52.528;13.340;2023-05-23T07:48:03;19.00;99.90
16578;DHT22;8401;52.528;13.340;2023-05-23T07:50:29;19.20;99.90
16578;DHT22;8401;52.528;13.340;2023-05-23T07:52:55;19.30;99.90
16578;DHT22;8401;52.528;13.340;2023-05-23T07:55:21;19.70;99.70
16578;DHT22;8401;52.528;13.340;2023-05-23T07:57:47;19.50;99.70
16578;DHT22;8401;52.528;13.340;2023-05-23T08:00:13;19.70;99.90
16578;DHT22;8401;52.528;13.340;2023-05-23T08:02:39;19.90;99.80
16578;DHT22;8401;52.528;13.340;2023-05-23T08:05:05;20.00;99.90
16578;DHT22;8401;52.528;13.340;2023-05-23T08:07:31;20.40;99.50
16578;DHT22;8401;52.528;13.340;2023-05-23T08:09:57;20.20;99.40
16578;DHT22;8401;52.528;13.340;2023-05-23T08:12:22;20.80;99.10
16578;DHT22;8401;52.528;13.340;2023-05-23T08:14:48;21.80;97.80
16578;DHT22;8401;52.528;13.340;2023-05-23T08:17:14;22.20;97.20
16578;DHT22;8401;52.528;13.340;2023-05-23T08:19:39;22.30;96.70
16578;DHT22;8401;52.528;13.340;2023-05-23T08:22:06;22.60;96.30
16578;DHT22;8401;52.528;13.340;2023-05-23T08:24:32;22.20;96.50
16578;DHT22;8401;52.528;13.340;2023-05-23T08:26:58;22.50;96.40
16578;DHT22;8401;52.528;13.340;2023-05-23T08:29:24;21.50;97.10
16578;DHT22;8401;52.528;13.340;2023-05-23T08:31:50;21.20;97.80
16578;DHT22;8401;52.528;13.340;2023-05-23T08:34:16;20.90;98.30
16578;DHT22;8401;52.528;13.340;2023-05-23T08:36:41;20.60;99.20
16578;DHT22;8401;52.528;13.340;2023-05-23T08:39:07;20.40;99.80
16578;DHT22;8401;52.528;13.340;2023-05-23T08:41:34;21.00;99.40
16578;DHT22;8401;52.528;13.340;2023-05-23T08:44:00;20.80;99.70
16578;DHT22;8401;52.528;13.340;2023-05-23T08:46:26;21.00;99.90
16578;DHT22;8401;52.528;13.340;2023-05-23T08:48:55;21.50;99.40
16578;DHT22;8401;52.528;13.340;2023-05-23T08:51:21;21.50;99.40
16578;DHT22;8401;52.528;13.340;2023-05-23T08:53:49;22.30;99.50
16578;DHT22;8401;52.528;13.340;2023-05-23T08:56:15;23.20;98.10
16578;DHT22;8401;52.528;13.340;2023-05-23T08:58:42;24.30;97.80
16578;DHT22;8401;52.528;13.340;2023-05-23T09:01:08;26.00;95.70
16578;DHT22;8401;52.528;13.340;2023-05-23T09:03:35;26.40;94.50
16578;DHT22;8401;52.528;13.340;2023-05-23T09:06:03;25.00;95.20
16578;DHT22;8401;52.528;13.340;2023-05-23T09:08:31;23.50;97.40
16578;DHT22;8401;52.528;13.340;2023-05-23T09:10:57;22.60;99.20
16578;DHT22;8401;52.528;13.340;2023-05-23T09:13:23;22.10;99.90
16578;DHT22;8401;52.528;13.340;2023-05-23T09:16:01;22.00;99.90
16578;DHT22;8401;52.528;13.340;2023-05-23T09:18:38;21.60;99.90
16578;DHT22;8401;52.528;13.340;2023-05-23T09:21:05;21.80;99.90
16578;DHT22;8401;52.528;13.340;2023-05-23T09:23:34;22.20;99.90
16578;DHT22;8401;52.528;13.340;2023-05-23T09:26:04;23.30;99.90
16578;DHT22;8401;52.528;13.340;2023-05-23T09:28:33;23.50;99.90
16578;DHT22;8401;52.528;13.340;2023-05-23T09:31:04;23.80;99.90
16578;DHT22;8401;52.528;13.340;2023-05-23T09:33:48;23.40;99.90
16578;DHT22;8401;52.528;13.340;2023-05-23T09:36:17;23.10;99.90
16578;DHT22;8401;52.528;13.340;2023-05-23T09:38:44;23.60;99.90
16578;DHT22;8401;52.528;13.340;2023-05-23T09:41:11;22.80;99.90
16578;DHT22;8401;52.528;13.340;2023-05-23T09:43:38;22.20;99.90
16578;DHT22;8401;52.528;13.340;2023-05-23T09:46:09;21.80;99.90
16578;DHT22;8401;52.528;13.340;2023-05-23T09:48:36;21.60;99.90
16578;DHT22;8401;52.528;13.340;2023-05-23T09:51:08;21.80;99.90
16578;DHT22;8401;52.528;13.340;2023-05-23T09:53:35;21.50;99.90
16578;DHT22;8401;52.528;13.340;2023-05-23T09:56:01;21.50;99.90
16578;DHT22;8401;52.528;13.340;2023-05-23T09:58:28;21.30;99.90
16578;DHT22;8401;52.528;13.340;2023-05-23T10:00:55;21.40;99.90
16578;DHT22;8401;52.528;13.340;2023-05-23T10:06:11;22.10;99.90
16578;DHT22;8401;52.528;13.340;2023-05-23T10:08:42;22.60;99.90
16578;DHT22;8401;52.528;13.340;2023-05-23T10:13:44;22.10;99.90
16578;DHT22;8401;52.528;13.340;2023-05-23T10:17:13;22.00;99.90
16578;DHT22;8401;52.528;13.340;2023-05-23T10:19:30;21.90;99.90
16578;DHT22;8401;52.528;13.340;2023-05-23T10:22:02;22.20;99.90
16578;DHT22;8401;52.528;13.340;2023-05-23T10:24:28;22.30;99.90
16578;DHT22;8401;52.528;13.340;2023-05-23T10:26:54;22.80;99.90
16578;DHT22;8401;52.528;13.340;2023-05-23T10:29:24;22.70;99.90
16578;DHT22;8401;52.528;13.340;2023-05-23T10:31:51;22.70;99.90
16578;DHT22;8401;52.528;13.340;2023-05-23T10:35:19;22.50;99.90
16578;DHT22;8401;52.528;13.340;2023-05-23T10:42:51;21.40;99.90
16578;DHT22;8401;52.528;13.340;2023-05-23T10:45:20;21.30;99.90
16578;DHT22;8401;52.528;13.340;2023-05-23T10:47:51;21.00;99.90
16578;DHT22;8401;52.528;13.340;2023-05-23T10:50:31;20.90;99.90
16578;DHT22;8401;52.528;13.340;2023-05-23T10:53:02;20.70;99.90
16578;DHT22;8401;52.528;13.340;2023-05-23T10:55:33;20.40;99.90
16578;DHT22;8401;52.528;13.340;2023-05-23T11:00:37;20.20;99.90
16578;DHT22;8401;52.528;13.340;2023-05-23T11:03:04;20.30;99.90
16578;DHT22;8401;52.528;13.340;2023-05-23T11:05:33;20.20;99.90
16578;DHT22;8401;52.528;13.340;2023-05-23T11:13:23;20.20;99.90
16578;DHT22;8401;52.528;13.340;2023-05-23T11:15:49;20.30;99.90
16578;DHT22;8401;52.528;13.340;2023-05-23T11:18:31;20.30;99.90
16578;DHT22;8401;52.528;13.340;2023-05-23T11:21:00;20.30;99.90
16578;DHT22;8401;52.528;13.340;2023-05-23T11:23:38;20.10;99.90
16578;DHT22;8401;52.528;13.340;2023-05-23T11:26:28;19.80;99.90
16578;DHT22;8401;52.528;13.340;2023-05-23T11:28:57;19.70;99.90
16578;DHT22;8401;52.528;13.340;2023-05-23T11:31:24;19.70;99.90
16578;DHT22;8401;52.528;13.340;2023-05-23T11:33:51;19.90;99.90
16578;DHT22;8401;52.528;13.340;2023-05-23T11:36:17;19.80;99.90
16578;DHT22;8401;52.528;13.340;2023-05-23T11:38:42;20.00;99.90
16578;DHT22;8401;52.528;13.340;2023-05-23T11:41:08;19.90;99.90
16578;DHT22;8401;52.528;13.340;2023-05-23T11:43:34;19.70;99.90
16578;DHT22;8401;52.528;13.340;2023-05-23T11:46:07;19.70;99.90
16578;DHT22;8401;52.528;13.340;2023-05-23T11:48:33;19.90;99.90
16578;DHT22;8401;52.528;13.340;2023-05-23T11:50:58;19.80;99.90
16578;DHT22;8401;52.528;13.340;2023-05-23T11:53:26;19.80;99.90
16578;DHT22;8401;52.528;13.340;2023-05-23T11:55:56;20.10;99.90
16578;DHT22;8401;52.528;13.340;2023-05-23T11:58:39;20.00;99.90
16578;DHT22;8401;52.528;13.340;2023-05-23T12:01:07;19.60;99.90
16578;DHT22;8401;52.528;13.340;2023-05-23T12:03:34;19.60;99.90
16578;DHT22;8401;52.528;13.340;2023-05-23T12:06:02;19.70;99.90
16578;DHT22;8401;52.528;13.340;2023-05-23T12:08:28;19.80;99.90
16578;DHT22;8401;52.528;13.340;2023-05-23T12:10:58;20.00;99.90
16578;DHT22;8401;52.528;13.340;2023-05-23T12:13:25;19.70;99.90
16578;DHT22;8401;52.528;13.340;2023-05-23T12:16:00;19.70;99.90
16578;DHT22;8401;52.528;13.340;2023-05-23T12:18:31;19.70;99.90
16578;DHT22;8401;52.528;13.340;2023-05-23T12:21:03;19.50;99.90
16578;DHT22;8401;52.528;13.340;2023-05-23T12:23:32;19.50;99.90
16578;DHT22;8401;52.528;13.340;2023-05-23T12:25:58;19.30;99.90
16578;DHT22;8401;52.528;13.340;2023-05-23T12:28:35;19.30;99.90
16578;DHT22;8401;52.528;13.340;2023-05-23T12:31:18;19.20;99.90
16578;DHT22;8401;52.528;13.340;2023-05-23T12:33:45;18.90;99.90
16578;DHT22;8401;52.528;13.340;2023-05-23T12:36:12;18.70;99.90
16578;DHT22;8401;52.528;13.340;2023-05-23T12:38:38;18.80;99.90
16578;DHT22;8401;52.528;13.340;2023-05-23T12:41:18;18.80;99.90
16578;DHT22;8401;52.528;13.340;2023-05-23T12:43:52;18.90;99.90
16578;DHT22;8401;52.528;13.340;2023-05-23T12:46:25;19.10;99.90
16578;DHT22;8401;52.528;13.340;2023-05-23T12:48:51;19.30;99.90
16578;DHT22;8401;52.528;13.340;2023-05-23T12:51:17;19.40;99.90
16578;DHT22;8401;52.528;13.340;2023-05-23T12:53:43;19.60;99.90
16578;DHT22;8401;52.528;13.340;2023-05-23T12:56:10;19.60;99.90
16578;DHT22;8401;52.528;13.340;2023-05-23T12:58:36;19.50;99.90
16578;DHT22;8401;52.528;13.340;2023-05-23T13:01:02;19.20;99.90
16578;DHT22;8401;52.528;13.340;2023-05-23T13:03:28;19.30;99.90
16578;DHT22;8401;52.528;13.340;2023-05-23T13:05:55;19.40;99.90
16578;DHT22;8401;52.528;13.340;2023-05-23T13:08:25;19.40;99.90
16578;DHT22;8401;52.528;13.340;2023-05-23T13:10:52;19.30;99.90
16578;DHT22;8401;52.528;13.340;2023-05-23T13:13:18;19.00;99.90
16578;DHT22;8401;52.528;13.340;2023-05-23T13:15:44;18.90;99.90
16578;DHT22;8401;52.528;13.340;2023-05-23T13:18:09;18.80;99.90
16578;DHT22;8401;52.528;13.340;2023-05-23T13:20:35;18.60;99.90
16578;DHT22;8401;52.528;13.340;2023-05-23T13:23:02;18.30;99.90
16578;DHT22;8401;52.528;13.340;2023-05-23T13:25:27;18.30;99.90
16578;DHT22;8401;52.528;13.340;2023-05-23T13:27:53;18.00;99.90
16578;DHT22;8401;52.528;13.340;2023-05-23T13:30:21;18.00;99.90
16578;DHT22;8401;52.528;13.340;2023-05-23T13:32:46;18.10;99.90
16578;DHT22;8401;52.528;13.340;2023-05-23T13:35:12;18.20;99.90
16578;DHT22;8401;52.528;13.340;2023-05-23T13:37:38;18.30;99.90
16578;DHT22;8401;52.528;13.340;2023-05-23T13:40:04;18.30;99.90
16578;DHT22;8401;52.528;13.340;2023-05-23T13:42:30;18.10;99.90
16578;DHT22;8401;52.528;13.340;2023-05-23T13:44:56;18.00;99.90
16578;DHT22;8401;52.528;13.340;2023-05-23T13:47:22;18.10;99.90
16578;DHT22;8401;52.528;13.340;2023-05-23T13:49:48;18.40;99.90
16578;DHT22;8401;52.528;13.340;2023-05-23T13:52:13;18.50;99.90
16578;DHT22;8401;52.528;13.340;2023-05-23T13:54:39;18.40;99.90
16578;DHT22;8401;52.528;13.340;2023-05-23T13:57:06;18.40;99.90
16578;DHT22;8401;52.528;13.340;2023-05-23T13:59:32;18.20;99.90
16578;DHT22;8401;52.528;13.340;2023-05-23T14:01:58;18.10;99.90
16578;DHT22;8401;52.528;13.340;2023-05-23T14:04:24;18.00;99.90
16578;DHT22;8401;52.528;13.340;2023-05-23T14:06:49;18.00;99.90
16578;DHT22;8401;52.528;13.340;2023-05-23T14:09:16;18.00;99.90
16578;DHT22;8401;52.528;13.340;2023-05-23T14:11:42;18.10;99.90
16578;DHT22;8401;52.528;13.340;2023-05-23T14:14:08;18.10;99.90
16578;DHT22;8401;52.528;13.340;2023-05-23T14:16:34;17.90;99.90
16578;DHT22;8401;52.528;13.340;2023-05-23T14:19:00;17.80;99.90
16578;DHT22;8401;52.528;13.340;2023-05-23T14:21:26;17.80;99.90
16578;DHT22;8401;52.528;13.340;2023-05-23T14:23:53;17.70;99.90
16578;DHT22;8401;52.528;13.340;2023-05-23T14:26:18;17.60;99.90
16578;DHT22;8401;52.528;13.340;2023-05-23T14:28:44;17.60;99.90
16578;DHT22;8401;52.528;13.340;2023-05-23T14:31:10;17.50;99.90
16578;DHT22;8401;52.528;13.340;2023-05-23T14:33:35;17.40;99.90
16578;DHT22;8401;52.528;13.340;2023-05-23T14:36:01;17.50;99.90
16578;DHT22;8401;52.528;13.340;2023-05-23T14:38:27;17.70;99.90
16578;DHT22;8401;52.528;13.340;2023-05-23T14:40:53;17.50;99.90
16578;DHT22;8401;52.528;13.340;2023-05-23T14:43:19;17.50;99.90
16578;DHT22;8401;52.528;13.340;2023-05-23T14:45:45;17.50;99.90
16578;DHT22;8401;52.528;13.340;2023-05-23T14:48:11;17.40;99.90
16578;DHT22;8401;52.528;13.340;2023-05-23T14:50:36;17.50;99.90
16578;DHT22;8401;52.528;13.340;2023-05-23T14:53:02;17.30;99.90
16578;DHT22;8401;52.528;13.340;2023-05-23T14:55:28;17.40;99.90
16578;DHT22;8401;52.528;13.340;2023-05-23T14:57:53;17.50;99.90
16578;DHT22;8401;52.528;13.340;2023-05-23T15:00:19;17.30;99.90
16578;DHT22;8401;52.528;13.340;2023-05-23T15:02:45;17.20;99.90
16578;DHT22;8401;52.528;13.340;2023-05-23T15:05:11;17.10;99.90
16578;DHT22;8401;52.528;13.340;2023-05-23T15:07:37;17.10;99.90
16578;DHT22;8401;52.528;13.340;2023-05-23T15:10:04;17.10;99.90
16578;DHT22;8401;52.528;13.340;2023-05-23T15:12:30;16.90;99.90
16578;DHT22;8401;52.528;13.340;2023-05-23T15:14:56;17.00;99.90
16578;DHT22;8401;52.528;13.340;2023-05-23T15:17:31;17.10;99.90
16578;DHT22;8401;52.528;13.340;2023-05-23T15:19:57;16.60;99.90
16578;DHT22;8401;52.528;13.340;2023-05-23T15:22:22;16.40;99.90
16578;DHT22;8401;52.528;13.340;2023-05-23T15:24:48;16.30;99.90
16578;DHT22;8401;52.528;13.340;2023-05-23T15:27:14;16.40;99.90
16578;DHT22;8401;52.528;13.340;2023-05-23T15:29:39;16.40;99.90
16578;DHT22;8401;52.528;13.340;2023-05-23T15:32:06;16.30;99.90
16578;DHT22;8401;52.528;13.340;2023-05-23T15:34:32;16.60;99.90
16578;DHT22;8401;52.528;13.340;2023-05-23T15:36:57;16.30;99.90
16578;DHT22;8401;52.528;13.340;2023-05-23T15:39:25;16.20;99.90
16578;DHT22;8401;52.528;13.340;2023-05-23T15:41:51;16.30;99.90
16578;DHT22;8401;52.528;13.340;2023-05-23T15:44:17;16.10;99.90
16578;DHT22;8401;52.528;13.340;2023-05-23T15:46:46;16.20;99.90
16578;DHT22;8401;52.528;13.340;2023-05-23T15:49:12;16.10;99.90
16578;DHT22;8401;52.528;13.340;2023-05-23T15:51:37;16.10;99.90
16578;DHT22;8401;52.528;13.340;2023-05-23T15:54:03;16.20;99.90